• Join FlightAware (Why Join?)
  • Login
  • US Flag 
06:23PM EDT


 

Airport Tracker/Info


-or-


 

Live Flight TrackerFlight Track Log ✈ SKW5631 ✈ 29-Apr-2013 ✈ KSFO - KBFL

Flight Track Log - Related Links

Times and Time Zones

All times are in EDT time to prevent confusion due to time zone crossing. See the SKW5631 flight status page for this flight to view local times or setup timezone preferences in your user account.

Time Position Orientation Groundspeed Altitude Reporting Facility
EDT Latitude Longitude Course Direction KTS MPH feet Rate Location/Type
06:45PM 37.6500 -122.3667 90° East 151 174 1,700  Level Northern Cal TRACON
06:46PM 37.6667 -122.3167 67° East 182 209 2,900 1,380 Climbing Northern Cal TRACON
06:47PM 37.7000 -122.2667 50° Northeast 184 212 4,500 1,680 Climbing Northern Cal TRACON
06:48PM 37.7333 -122.2000 58° Northeast 244 281 6,300 1,560 Climbing Northern Cal TRACON
06:49PM 37.7500 -122.1333 72° East 197 227 7,700 1,260 Climbing Northern Cal TRACON
06:50PM 37.6167 -122.3701 90° East  Level FlightAware Approximate
06:50PM 37.7550 -122.0575 85° East 204 235 9,200  Level Oakland Center
06:51PM 37.7686 -121.9878 76° East 205 236 10,500 1,320 Climbing Oakland Center
06:52PM 37.7839 -121.9003 78° East 212 244 12,000 1,320 Climbing Oakland Center
06:53PM 37.7553 -121.8286 117° Southeast 229 264 13,200 1,080 Climbing Oakland Center
06:54PM 37.7258 -121.7572 118° Southeast 229 264 14,300 1,020 Climbing Oakland Center
06:55PM 37.6942 -121.6842 119° Southeast 236 272 15,400 1,080 Climbing Oakland Center
06:56PM 37.6644 -121.6144 118° Southeast 229 264 16,600 960 Climbing Oakland Center
06:57PM 37.6350 -121.5411 117° Southeast 232 267 17,400 840 Climbing Oakland Center
06:58PM 37.6042 -121.4689 118° Southeast 235 270 18,400 1,020 Climbing Oakland Center
06:59PM 37.5733 -121.3958 118° Southeast 236 272 19,500 900 Climbing Oakland Center
07:00PM 37.5383 -121.3261 122° Southeast 236 272 20,300 780 Climbing Oakland Center
07:01PM 37.4864 -121.2717 140° Southeast 240 276 21,100 780 Climbing Oakland Center
07:02PM 37.4353 -121.2139 138° Southeast 244 281 21,900 600 Climbing Oakland Center
07:04PM 37.3272 -121.1022 141° Southeast 247 284 23,000 -4,740 Climbing Los Angeles Center
07:04PM 37.5525 -121.5172 304° West 382 440 11,300  Descending Oakland Center
07:07PM 37.1547 -120.9089 129° Southeast 280 322 23,000 3,000 Climbing Los Angeles Center
07:08PM 37.0981 -120.8436 137° Southeast 278 320 23,000  Level Los Angeles Center
07:09PM 37.0289 -120.7678 139° Southeast 277 319 23,000  Level Los Angeles Center
07:10PM 36.9700 -120.6997 137° Southeast 273 314 23,000  Level Oakland Center
07:11PM 36.9128 -120.6358 138° Southeast 275 316 23,000  Level Oakland Center
07:12PM 36.8542 -120.5725 139° Southeast 275 316 23,000  Level Oakland Center
07:13PM 36.7981 -120.5075 137° Southeast 277 319 23,000  Level Oakland Center
07:14PM 36.7417 -120.4442 138° Southeast 271 312 23,000  Level Oakland Center
07:15PM 36.6833 -120.3794 138° Southeast 278 320 23,000  Level Oakland Center
07:16PM 36.6236 -120.3169 140° Southeast 277 319 23,000  Level Oakland Center
07:17PM 36.5672 -120.2522 137° Southeast 274 315 23,000  Level Oakland Center
07:18PM 36.4961 -120.1769 140° Southeast 277 319 23,000  Level Oakland Center
07:19PM 36.4394 -120.1131 138° Southeast 276 318 23,000  Level Oakland Center
07:20PM 36.3808 -120.0494 139° Southeast 278 320 23,000 -480 Level Oakland Center
07:21PM 36.3206 -119.9842 139° Southeast 288 331 22,100 -1,140 Descending Oakland Center
07:22PM 36.2531 -119.9119 139° Southeast 316 364 20,700 -1,320 Descending Oakland Center
07:23PM 36.1842 -119.8381 139° Southeast 325 374 19,500 -1,140 Descending Oakland Center
07:24PM 36.1167 -119.7647 139° Southeast 322 371 18,400 -1,320 Descending Oakland Center
07:25PM 36.0492 -119.6922 139° Southeast 320 368 16,800 -1,680 Descending Oakland Center
07:26PM 35.9803 -119.6217 140° Southeast 322 371 15,000 -1,680 Descending Oakland Center
07:28PM 35.9117 -119.5486 139° Southeast 322 371 13,400 -1,800 Descending Oakland Center
07:29PM 35.8289 -119.4606 139° Southeast 325 374 11,400 -1,800 Descending Oakland Center
07:30PM 35.7628 -119.3872 138° Southeast 322 371 9,800 -1,500 Descending Oakland Center
07:31PM 35.7053 -119.3094 132° Southeast 314 361 8,400 -1,500 Descending Oakland Center
07:32PM 35.6483 -119.2344 133° Southeast 307 353 6,800 -1,560 Descending Oakland Center
07:33PM 35.5911 -119.1628 134° Southeast 301 346 5,300 -1,380 Descending Oakland Center
07:33PM 35.5683 -119.1350 135° Southeast 300 345 4,800 -1,380 Descending Los Angeles Center
07:34PM 35.5164 -119.0717 135° Southeast 286 329 3,300 -1,500 Descending Los Angeles Center
07:37PM 35.4333 -119.0500 151° Southeast  Level FlightAware Approximate
07:44PM 35.4339 -119.0577 151° Southeast  Level Estimated
07:45PM 35.4333 -119.0500 151° Southeast  Level FlightAware Approximate
07:46PM 35.4339 -119.0577 151° Southeast  Level Estimated